createdAt,value
2023-04-01T08:01:11.999Z,94054.00
2023-04-01T08:02:11.981Z,94056.00
2023-04-01T08:03:12.048Z,94054.00
2023-04-01T08:04:12.055Z,94056.00
2023-04-01T08:05:11.940Z,94052.00
2023-04-01T08:06:11.928Z,94048.00
2023-04-01T08:07:11.918Z,94048.00
2023-04-01T08:08:11.912Z,94050.00
2023-04-01T08:09:11.921Z,94052.00
2023-04-01T08:10:11.925Z,94048.00
2023-04-01T08:11:11.901Z,94052.00
2023-04-01T08:12:11.886Z,94048.00
2023-04-01T08:13:11.869Z,94044.00
2023-04-01T08:14:11.899Z,94046.00
2023-04-01T08:15:11.838Z,94048.00
2023-04-01T08:16:11.952Z,94042.00
2023-04-01T08:17:11.857Z,94044.00
2023-04-01T08:18:11.879Z,94044.00
2023-04-01T08:19:11.872Z,94042.00
2023-04-01T08:20:11.899Z,94042.00
2023-04-01T08:21:11.973Z,94042.00
2023-04-01T08:22:11.997Z,94042.00
2023-04-01T08:23:12.013Z,94034.00
2023-04-01T08:24:12.107Z,94036.00
2023-04-01T08:25:12.137Z,94034.00
2023-04-01T08:26:12.161Z,94034.00
2023-04-01T08:27:12.225Z,94031.00
2023-04-01T08:28:12.251Z,94025.00
2023-04-01T08:29:12.275Z,94025.00
2023-04-01T08:30:12.324Z,94025.00
2023-04-01T08:31:12.353Z,94021.00
2023-04-01T08:32:12.399Z,94021.00
2023-04-01T08:33:12.468Z,94019.00
2023-04-01T08:34:12.439Z,94021.00
2023-04-01T08:35:12.490Z,94023.00
2023-04-01T08:36:12.588Z,94023.00
2023-04-01T08:37:12.499Z,94025.00
2023-04-01T08:38:12.535Z,94019.00
2023-04-01T08:39:12.556Z,94015.00
2023-04-01T08:40:12.582Z,94013.00
2023-04-01T08:41:12.609Z,94011.00
2023-04-01T08:42:12.647Z,94011.00
2023-04-01T08:43:12.640Z,94011.00
2023-04-01T08:44:12.672Z,94013.00
2023-04-01T08:45:14.517Z,94007.00
2023-04-01T08:46:12.745Z,94009.00
2023-04-01T08:47:12.738Z,94009.00
2023-04-01T08:48:12.824Z,94011.00
2023-04-01T08:49:12.795Z,94009.00
2023-04-01T08:50:12.788Z,94011.00
2023-04-01T08:51:12.832Z,94009.00
2023-04-01T08:52:12.825Z,94009.00
2023-04-01T08:53:12.854Z,94007.00
2023-04-01T08:54:12.860Z,94011.00
2023-04-01T08:55:12.926Z,94011.00
2023-04-01T08:56:12.928Z,94011.00
2023-04-01T08:57:12.967Z,94011.00
2023-04-01T08:58:12.954Z,94009.00
2023-04-01T08:59:12.953Z,94005.00
2023-04-01T09:00:12.975Z,94005.00
2023-04-01T09:01:12.998Z,94005.00
2023-04-01T09:02:13.031Z,94007.00
2023-04-01T09:03:13.157Z,94011.00
2023-04-01T09:04:13.057Z,94007.00
2023-04-01T09:05:13.024Z,94007.00
2023-04-01T09:06:13.084Z,94009.00
2023-04-01T09:07:13.098Z,94007.00
2023-04-01T09:08:13.070Z,94003.00
2023-04-01T09:09:13.070Z,94003.00
2023-04-01T09:10:13.088Z,94001.00
2023-04-01T09:11:13.085Z,93999.00
2023-04-01T09:12:13.152Z,93997.00
2023-04-01T09:13:13.092Z,93999.00
2023-04-01T09:14:13.136Z,93999.00
2023-04-01T09:15:13.165Z,93995.00
2023-04-01T09:16:13.159Z,93993.00
2023-04-01T09:17:13.190Z,93991.00
2023-04-01T09:18:13.185Z,93989.00
2023-04-01T09:19:13.190Z,93991.00
2023-04-01T09:20:13.181Z,93991.00
2023-04-01T09:21:13.233Z,93991.00
2023-04-01T09:22:13.180Z,93987.00
2023-04-01T09:23:13.196Z,93981.00
2023-04-01T09:24:13.221Z,93983.00
2023-04-01T09:25:13.224Z,93981.00
2023-04-01T09:26:13.261Z,93980.00
2023-04-01T09:27:13.259Z,93978.00
2023-04-01T09:28:13.237Z,93980.00
2023-04-01T09:29:13.237Z,93980.00
2023-04-01T09:30:13.263Z,93974.00
2023-04-01T09:31:13.314Z,93972.00
2023-04-01T09:32:13.275Z,93974.00
2023-04-01T09:33:13.268Z,93972.00
2023-04-01T09:34:13.280Z,93974.00
2023-04-01T09:35:13.269Z,93972.00
2023-04-01T09:36:13.305Z,93972.00
2023-04-01T09:37:13.311Z,93968.00
2023-04-01T09:38:13.276Z,93964.00
2023-04-01T09:39:13.281Z,93962.00
2023-04-01T09:40:13.251Z,93962.00
2023-04-01T09:41:13.279Z,93960.00
2023-04-01T09:42:13.307Z,93960.00
2023-04-01T09:43:13.280Z,93960.00
2023-04-01T09:44:13.300Z,93954.00
2023-04-01T09:45:13.294Z,93956.00
2023-04-01T09:46:13.409Z,93952.00
2023-04-01T09:47:13.277Z,93950.00
2023-04-01T09:48:13.388Z,93950.00
2023-04-01T09:49:13.306Z,93950.00
2023-04-01T09:50:13.322Z,93944.00
2023-04-01T09:51:13.322Z,93948.00
2023-04-01T09:52:13.310Z,93946.00
2023-04-01T09:53:13.321Z,93946.00
2023-04-01T09:54:13.351Z,93946.00
2023-04-01T09:55:13.335Z,93942.00
2023-04-01T09:56:13.348Z,93942.00
2023-04-01T09:57:13.406Z,93934.00
2023-04-01T09:58:13.394Z,93933.00
2023-04-01T09:59:13.362Z,93934.00
2023-04-01T10:00:13.369Z,93931.00
2023-04-01T10:01:13.402Z,93933.00
2023-04-01T10:02:13.374Z,93934.00
2023-04-01T10:03:13.407Z,93929.00
2023-04-01T10:04:13.351Z,93931.00
2023-04-01T10:05:13.412Z,93923.00
2023-04-01T10:06:13.440Z,93923.00
2023-04-01T10:07:13.383Z,93925.00
2023-04-01T10:08:13.412Z,93925.00
2023-04-01T10:09:13.359Z,93925.00
2023-04-01T10:10:13.367Z,93923.00
2023-04-01T10:11:13.383Z,93921.00
2023-04-01T10:12:13.364Z,93921.00
2023-04-01T10:13:13.405Z,93921.00
2023-04-01T10:14:13.375Z,93919.00
2023-04-01T10:15:13.411Z,93921.00
2023-04-01T10:16:13.393Z,93919.00
2023-04-01T10:17:13.372Z,93917.00
2023-04-01T10:18:13.410Z,93915.00
2023-04-01T10:19:13.398Z,93913.00
2023-04-01T10:20:13.394Z,93913.00
2023-04-01T10:21:13.380Z,93911.00
2023-04-01T10:22:13.369Z,93905.00
2023-04-01T10:23:13.437Z,93905.00
2023-04-01T10:24:13.381Z,93901.00
2023-04-01T10:25:13.427Z,93901.00
2023-04-01T10:26:13.384Z,93901.00
2023-04-01T10:27:13.393Z,93903.00
2023-04-01T10:28:13.394Z,93903.00
2023-04-01T10:29:13.428Z,93901.00
2023-04-01T10:30:13.435Z,93901.00
2023-04-01T10:31:13.436Z,93899.00
2023-04-01T10:32:13.506Z,93897.00
2023-04-01T10:33:13.406Z,93895.00
2023-04-01T10:34:13.440Z,93893.00
2023-04-01T10:35:13.473Z,93889.00
2023-04-01T10:36:13.431Z,93891.00
2023-04-01T10:37:13.454Z,93889.00
2023-04-01T10:38:13.402Z,93895.00
2023-04-01T10:39:13.455Z,93893.00
2023-04-01T10:40:13.461Z,93891.00
2023-04-01T10:41:13.408Z,93891.00
2023-04-01T10:42:13.414Z,93891.00
2023-04-01T10:43:13.449Z,93887.00
2023-04-01T10:44:13.525Z,93889.00
2023-04-01T10:45:13.546Z,93889.00
2023-04-01T10:46:15.598Z,93882.00
2023-04-01T10:47:13.534Z,93884.00
2023-04-01T10:48:13.491Z,93882.00
2023-04-01T10:49:13.491Z,93884.00
2023-04-01T10:50:13.484Z,93880.00
2023-04-01T10:51:13.473Z,93882.00
2023-04-01T10:52:13.466Z,93884.00
2023-04-01T10:53:13.476Z,93884.00
2023-04-01T10:54:13.436Z,93880.00
2023-04-01T10:55:13.441Z,93878.00
2023-04-01T10:56:13.473Z,93878.00
2023-04-01T10:57:13.472Z,93876.00
2023-04-01T10:58:13.462Z,93876.00
2023-04-01T10:59:13.431Z,93874.00
2023-04-01T11:00:13.419Z,93876.00
2023-04-01T11:01:13.454Z,93872.00
2023-04-01T11:02:13.532Z,93872.00
2023-04-01T11:03:13.504Z,93868.00
2023-04-01T11:04:13.385Z,93868.00
2023-04-01T11:05:13.385Z,93866.00
2023-04-01T11:06:13.357Z,93864.00
2023-04-01T11:07:13.392Z,93860.00
2023-04-01T11:08:13.352Z,93864.00
2023-04-01T11:09:13.368Z,93860.00
2023-04-01T11:10:13.355Z,93856.00
2023-04-01T11:11:13.323Z,93846.00
2023-04-01T11:12:13.346Z,93846.00
2023-04-01T11:13:13.341Z,93844.00
2023-04-01T11:14:13.326Z,93844.00
2023-04-01T11:15:13.340Z,93838.00
2023-04-01T11:16:13.392Z,93836.00
2023-04-01T11:17:13.325Z,93840.00
2023-04-01T11:18:13.384Z,93838.00
2023-04-01T11:19:13.342Z,93838.00
2023-04-01T11:20:13.290Z,93836.00
2023-04-01T11:21:13.282Z,93838.00
2023-04-01T11:22:13.295Z,93834.00
2023-04-01T11:23:13.304Z,93836.00
2023-04-01T11:24:13.286Z,93834.00
2023-04-01T11:25:13.251Z,93834.00
2023-04-01T11:26:13.271Z,93834.00
2023-04-01T11:27:13.282Z,93833.00
2023-04-01T11:28:13.239Z,93833.00
2023-04-01T11:29:13.216Z,93834.00
2023-04-01T11:30:13.310Z,93833.00
2023-04-01T11:31:13.240Z,93831.00
2023-04-01T11:32:13.180Z,93831.00
2023-04-01T11:33:13.195Z,93831.00
2023-04-01T11:34:13.189Z,93833.00
2023-04-01T11:35:13.202Z,93831.00
2023-04-01T11:36:13.208Z,93833.00
2023-04-01T11:37:13.161Z,93831.00
2023-04-01T11:38:13.173Z,93834.00
2023-04-01T11:39:13.170Z,93831.00
2023-04-01T11:40:13.180Z,93827.00
2023-04-01T11:41:13.128Z,93823.00
2023-04-01T11:42:13.122Z,93823.00
2023-04-01T11:43:19.976Z,93823.00
2023-04-01T11:44:14.138Z,93821.00
2023-04-01T11:45:13.140Z,93821.00
2023-04-01T11:46:13.166Z,93823.00
2023-04-01T11:47:13.109Z,93821.00
2023-04-01T11:48:13.088Z,93815.00
2023-04-01T11:49:13.133Z,93811.00
2023-04-01T11:50:13.124Z,93807.00
2023-04-01T11:51:13.087Z,93811.00
2023-04-01T11:52:13.066Z,93809.00
2023-04-01T11:53:13.134Z,93807.00
2023-04-01T11:54:13.131Z,93809.00
2023-04-01T11:55:13.195Z,93811.00
2023-04-01T11:56:13.273Z,93813.00
2023-04-01T11:57:13.402Z,93813.00
2023-04-01T11:58:13.344Z,93809.00
2023-04-01T11:59:13.395Z,93801.00
2023-04-01T12:00:13.477Z,93811.00
2023-04-01T12:01:13.516Z,93813.00
2023-04-01T12:02:13.633Z,93813.00
2023-04-01T12:03:13.708Z,93807.00
2023-04-01T12:04:13.879Z,93807.00
2023-04-01T12:05:13.814Z,93809.00
2023-04-01T12:06:13.857Z,93811.00
2023-04-01T12:07:13.922Z,93809.00
2023-04-01T12:08:13.970Z,93811.00
2023-04-01T12:09:14.039Z,93813.00
2023-04-01T12:10:14.070Z,93817.00
2023-04-01T12:11:14.148Z,93809.00
2023-04-01T12:12:14.230Z,93817.00
2023-04-01T12:13:14.317Z,93811.00
2023-04-01T12:14:14.404Z,93813.00
2023-04-01T12:15:14.422Z,93817.00
2023-04-01T12:16:14.462Z,93809.00
2023-04-01T12:17:14.558Z,93811.00
2023-04-01T12:18:14.562Z,93811.00
2023-04-01T12:19:14.603Z,93809.00
2023-04-01T12:20:14.703Z,93809.00
2023-04-01T12:21:14.734Z,93811.00
2023-04-01T12:22:14.819Z,93809.00
2023-04-01T12:23:14.870Z,93811.00
2023-04-01T12:24:14.928Z,93815.00
2023-04-01T12:25:14.985Z,93815.00
2023-04-01T12:26:15.064Z,93811.00
2023-04-01T12:27:15.115Z,93813.00
2023-04-01T12:28:15.165Z,93817.00
2023-04-01T12:29:15.221Z,93819.00
2023-04-01T12:30:15.302Z,93815.00
2023-04-01T12:31:15.337Z,93819.00
2023-04-01T12:32:15.475Z,93819.00
2023-04-01T12:33:15.467Z,93821.00
2023-04-01T12:34:15.474Z,93817.00
2023-04-01T12:35:15.512Z,93821.00
2023-04-01T12:36:15.655Z,93821.00
2023-04-01T12:37:15.635Z,93821.00
2023-04-01T12:38:15.692Z,93817.00
2023-04-01T12:39:15.704Z,93819.00
2023-04-01T12:40:15.767Z,93825.00
2023-04-01T12:41:15.868Z,93825.00
2023-04-01T12:42:15.866Z,93829.00
2023-04-01T12:43:15.928Z,93829.00
2023-04-01T12:44:15.973Z,93829.00
2023-04-01T12:45:16.028Z,93831.00
2023-04-01T12:46:16.125Z,93831.00
2023-04-01T12:47:16.154Z,93831.00
2023-04-01T12:48:16.179Z,93831.00
2023-04-01T12:49:16.245Z,93831.00
2023-04-01T12:50:16.287Z,93834.00
2023-04-01T12:51:16.371Z,93836.00
2023-04-01T12:52:16.364Z,93833.00
2023-04-01T12:53:16.433Z,93833.00
2023-04-01T12:54:16.470Z,93834.00
2023-04-01T12:55:16.541Z,93833.00
2023-04-01T12:56:16.617Z,93834.00
2023-04-01T12:57:16.681Z,93836.00
2023-04-01T12:58:16.673Z,93834.00
2023-04-01T12:59:16.739Z,93840.00
2023-04-01T13:00:16.816Z,93844.00
